createdAt,value
2022-07-26T00:01:25.888Z,19.90
2022-07-26T00:04:01.201Z,20.00
2022-07-26T00:06:30.931Z,20.10
2022-07-26T00:08:59.523Z,20.20
2022-07-26T00:11:28.897Z,20.30
2022-07-26T00:13:57.412Z,20.50
2022-07-26T00:16:25.799Z,20.40
2022-07-26T00:21:36.895Z,20.30
2022-07-26T00:24:09.640Z,20.20
2022-07-26T00:26:37.894Z,20.10
2022-07-26T00:29:07.090Z,20.10
2022-07-26T00:31:35.656Z,20.00
2022-07-26T00:34:04.312Z,20.00
2022-07-26T00:36:32.710Z,20.10
2022-07-26T00:39:02.391Z,20.10
2022-07-26T00:41:31.619Z,19.90
2022-07-26T00:44:00.273Z,20.00
2022-07-26T00:46:28.937Z,20.10
2022-07-26T00:48:57.448Z,20.20
2022-07-26T00:51:25.813Z,20.10
2022-07-26T00:53:54.326Z,20.10
2022-07-26T00:56:24.650Z,20.10
2022-07-26T00:58:53.093Z,20.10
2022-07-26T01:01:21.418Z,20.00
2022-07-26T01:03:51.685Z,20.00
2022-07-26T01:06:22.789Z,20.00
2022-07-26T01:08:55.537Z,20.00
2022-07-26T01:11:25.137Z,20.00
2022-07-26T01:13:53.632Z,19.90
2022-07-26T01:16:21.818Z,19.90
2022-07-26T01:18:50.041Z,19.80
2022-07-26T01:21:18.564Z,19.80
2022-07-26T01:23:48.108Z,19.80
2022-07-26T01:26:16.610Z,19.90
2022-07-26T01:28:46.416Z,19.80
2022-07-26T01:31:15.339Z,19.80
2022-07-26T01:33:43.617Z,19.80
2022-07-26T01:36:13.179Z,19.90
2022-07-26T01:38:41.650Z,20.00
2022-07-26T01:41:11.588Z,20.10
2022-07-26T01:43:39.795Z,20.10
2022-07-26T01:46:09.498Z,20.20
2022-07-26T01:48:41.544Z,20.30
2022-07-26T01:51:09.885Z,20.40
2022-07-26T01:53:38.145Z,20.50
2022-07-26T01:56:06.852Z,20.60
2022-07-26T01:58:36.509Z,20.70
2022-07-26T02:01:04.829Z,20.60
2022-07-26T02:03:33.633Z,20.50
2022-07-26T02:06:01.924Z,20.60
2022-07-26T02:08:30.484Z,20.50
2022-07-26T02:11:03.733Z,20.50
2022-07-26T02:13:33.560Z,20.50
2022-07-26T02:16:03.629Z,20.50
2022-07-26T02:18:32.409Z,20.60
2022-07-26T02:21:01.916Z,20.70
2022-07-26T02:23:30.372Z,20.70
2022-07-26T02:25:58.779Z,20.80
2022-07-26T02:28:28.821Z,20.80
2022-07-26T02:30:57.536Z,20.80
2022-07-26T02:33:27.156Z,20.80
2022-07-26T02:35:55.674Z,20.90
2022-07-26T02:38:25.145Z,20.90
2022-07-26T02:40:53.630Z,20.90
2022-07-26T02:43:21.998Z,20.90
2022-07-26T02:46:01.150Z,20.80
2022-07-26T02:48:32.283Z,20.90
2022-07-26T02:51:00.601Z,20.90
2022-07-26T02:53:28.919Z,20.80
2022-07-26T02:55:57.133Z,20.80
2022-07-26T02:58:26.934Z,20.60
2022-07-26T03:00:55.149Z,20.60
2022-07-26T03:03:23.855Z,20.60
2022-07-26T03:05:53.400Z,20.60
2022-07-26T03:08:22.665Z,20.60
2022-07-26T03:10:50.871Z,20.60
2022-07-26T03:13:19.170Z,20.60
2022-07-26T03:15:47.475Z,20.70
2022-07-26T03:18:15.727Z,20.70
2022-07-26T03:20:44.628Z,20.70
2022-07-26T03:23:14.082Z,20.80
2022-07-26T03:25:42.724Z,20.90
2022-07-26T03:28:14.786Z,20.80
2022-07-26T03:30:45.863Z,20.90
2022-07-26T03:33:14.275Z,20.90
2022-07-26T03:35:42.657Z,20.80
2022-07-26T03:38:14.813Z,20.80
2022-07-26T03:40:43.201Z,20.80
2022-07-26T03:43:11.484Z,20.80
2022-07-26T03:45:40.001Z,20.80
2022-07-26T03:48:08.301Z,20.60
2022-07-26T03:50:36.665Z,20.50
2022-07-26T03:53:05.165Z,20.60
2022-07-26T03:55:57.651Z,20.60
2022-07-26T03:58:25.909Z,20.60
2022-07-26T04:00:54.617Z,20.70
2022-07-26T04:03:23.173Z,20.70
2022-07-26T04:05:52.751Z,20.70
2022-07-26T04:08:21.431Z,20.70
2022-07-26T04:10:51.512Z,20.70
2022-07-26T04:13:19.835Z,20.70
2022-07-26T04:15:48.243Z,20.70
2022-07-26T04:18:16.990Z,20.70
2022-07-26T04:20:45.469Z,20.70
2022-07-26T04:23:13.871Z,20.70
2022-07-26T04:25:42.278Z,20.70
2022-07-26T04:28:11.976Z,20.80
2022-07-26T04:30:41.685Z,20.80
2022-07-26T04:33:09.986Z,20.90
2022-07-26T04:35:38.163Z,20.90
2022-07-26T04:38:06.547Z,20.80
2022-07-26T04:40:34.788Z,20.70
2022-07-26T04:43:15.247Z,20.80
2022-07-26T04:45:46.884Z,20.70
2022-07-26T04:48:15.689Z,20.70
2022-07-26T04:50:44.581Z,20.70
2022-07-26T04:53:12.829Z,20.70
2022-07-26T04:55:41.522Z,20.70
2022-07-26T04:58:10.197Z,20.70
2022-07-26T05:01:02.787Z,20.70
2022-07-26T05:03:28.279Z,20.70
2022-07-26T05:05:56.852Z,20.70
2022-07-26T05:08:25.521Z,20.70
2022-07-26T05:10:55.823Z,20.80
2022-07-26T05:13:30.216Z,20.70
2022-07-26T05:16:00.296Z,20.70
2022-07-26T05:18:43.893Z,20.70
2022-07-26T05:21:17.786Z,20.70
2022-07-26T05:23:46.045Z,20.70
2022-07-26T05:26:14.498Z,20.70
2022-07-26T05:28:43.172Z,20.70
2022-07-26T05:31:11.714Z,20.70
2022-07-26T05:33:41.274Z,20.70
2022-07-26T05:36:10.337Z,20.70
2022-07-26T05:38:38.467Z,20.80
2022-07-26T05:41:07.229Z,20.80
2022-07-26T05:43:41.836Z,20.80
2022-07-26T05:46:11.741Z,20.80
2022-07-26T05:48:41.686Z,20.80
2022-07-26T05:51:10.029Z,20.80
2022-07-26T05:53:39.134Z,20.70
2022-07-26T05:56:07.827Z,20.70
2022-07-26T05:58:35.995Z,20.80
2022-07-26T06:01:04.608Z,20.80
2022-07-26T06:03:33.036Z,20.90
2022-07-26T06:06:03.062Z,20.90
2022-07-26T06:08:32.893Z,20.90
2022-07-26T06:11:01.145Z,20.90
2022-07-26T06:13:29.528Z,20.80
2022-07-26T06:15:57.756Z,20.80
2022-07-26T06:18:26.434Z,20.80
2022-07-26T06:20:55.802Z,20.80
2022-07-26T06:23:33.939Z,20.80
2022-07-26T06:26:04.382Z,20.90
2022-07-26T06:28:33.173Z,20.90
2022-07-26T06:31:01.517Z,20.90
2022-07-26T06:33:30.326Z,20.90
2022-07-26T06:35:58.584Z,20.90
2022-07-26T06:38:28.550Z,20.80
2022-07-26T06:40:56.708Z,20.80
2022-07-26T06:43:25.244Z,20.70
2022-07-26T06:45:53.526Z,20.70
2022-07-26T06:48:22.956Z,20.70
2022-07-26T06:50:51.502Z,20.70
2022-07-26T06:53:19.904Z,20.70
2022-07-26T06:55:49.458Z,20.60
2022-07-26T06:58:17.673Z,20.60
2022-07-26T07:00:45.857Z,20.60
2022-07-26T07:03:14.087Z,20.60
2022-07-26T07:05:45.317Z,20.60
2022-07-26T07:08:18.138Z,20.50
2022-07-26T07:10:46.893Z,20.50
2022-07-26T07:13:19.342Z,20.50
2022-07-26T07:15:47.830Z,20.50
2022-07-26T07:18:16.108Z,20.40
2022-07-26T07:20:44.733Z,20.40
2022-07-26T07:23:12.934Z,20.30
2022-07-26T07:25:41.423Z,20.30
2022-07-26T07:28:13.599Z,20.20
2022-07-26T07:30:43.111Z,20.20
2022-07-26T07:33:22.249Z,20.20
2022-07-26T07:35:52.186Z,20.10
2022-07-26T07:38:22.283Z,20.10
2022-07-26T07:40:51.178Z,20.10
2022-07-26T07:43:19.804Z,20.00
2022-07-26T07:45:49.468Z,19.90
2022-07-26T07:48:18.125Z,19.80
2022-07-26T07:50:46.704Z,19.80
2022-07-26T07:53:14.964Z,19.80
2022-07-26T07:55:46.191Z,19.80
2022-07-26T07:58:17.218Z,19.80
2022-07-26T08:00:49.179Z,19.90
2022-07-26T08:03:19.068Z,19.80
2022-07-26T08:05:49.571Z,19.90
2022-07-26T08:08:18.925Z,19.90
2022-07-26T08:10:52.427Z,19.90
2022-07-26T08:13:22.670Z,20.00
2022-07-26T08:15:53.019Z,20.00
2022-07-26T08:18:22.480Z,20.00
2022-07-26T08:20:51.941Z,20.00
2022-07-26T08:23:20.224Z,20.00
2022-07-26T08:25:56.260Z,20.00
2022-07-26T08:28:46.378Z,19.90
2022-07-26T08:31:17.162Z,19.80
2022-07-26T08:33:46.395Z,19.80
2022-07-26T08:36:15.824Z,19.70
2022-07-26T08:38:44.286Z,19.70
2022-07-26T08:41:13.264Z,19.60
2022-07-26T08:43:52.438Z,19.60
2022-07-26T08:46:27.857Z,19.60
2022-07-26T08:48:56.828Z,19.60
2022-07-26T08:51:26.472Z,19.60
2022-07-26T08:53:59.301Z,19.50
2022-07-26T08:56:32.981Z,19.50
2022-07-26T08:59:03.634Z,19.50
2022-07-26T09:01:36.934Z,19.50
2022-07-26T09:04:31.527Z,19.50
2022-07-26T09:07:02.593Z,19.50
2022-07-26T09:09:31.601Z,19.60
2022-07-26T09:12:00.583Z,19.60
2022-07-26T09:14:37.002Z,19.50
2022-07-26T09:17:07.168Z,19.40
2022-07-26T09:19:36.936Z,19.50
2022-07-26T09:22:10.559Z,19.60
2022-07-26T09:24:42.355Z,19.70
2022-07-26T09:27:11.839Z,19.70
2022-07-26T09:29:44.256Z,19.80
2022-07-26T09:32:17.295Z,19.90
2022-07-26T09:34:52.711Z,20.00
2022-07-26T09:37:33.589Z,20.10
2022-07-26T09:40:03.569Z,20.10
2022-07-26T09:42:32.102Z,20.20
2022-07-26T09:45:00.643Z,20.30
2022-07-26T09:47:40.717Z,20.40
2022-07-26T09:50:16.289Z,20.50
2022-07-26T09:52:58.815Z,20.60
2022-07-26T09:55:32.090Z,20.80
2022-07-26T09:58:06.559Z,20.90
2022-07-26T10:00:34.939Z,21.10
2022-07-26T10:03:04.575Z,21.20
2022-07-26T10:05:33.467Z,21.40
2022-07-26T10:08:02.234Z,21.50
2022-07-26T10:10:32.135Z,21.70
2022-07-26T10:13:03.113Z,21.90
2022-07-26T10:15:34.861Z,22.00
2022-07-26T10:18:05.795Z,22.10
2022-07-26T10:20:42.037Z,22.00
2022-07-26T10:23:28.256Z,22.10
2022-07-26T10:25:56.534Z,22.00
2022-07-26T10:28:31.310Z,22.10
2022-07-26T10:31:18.444Z,22.10
2022-07-26T10:33:49.493Z,22.10
2022-07-26T10:36:25.122Z,22.20
2022-07-26T10:38:59.915Z,22.30
2022-07-26T10:41:35.528Z,22.10
2022-07-26T10:44:17.630Z,22.10
2022-07-26T10:47:03.916Z,22.20
2022-07-26T10:50:00.508Z,23.30
2022-07-26T10:52:34.770Z,24.40
2022-07-26T10:55:07.883Z,24.60
2022-07-26T10:57:37.673Z,24.40
2022-07-26T11:00:09.754Z,24.30
2022-07-26T11:02:38.042Z,24.10
2022-07-26T11:05:14.203Z,24.10
2022-07-26T11:07:49.982Z,24.00
2022-07-26T11:10:22.864Z,23.90
2022-07-26T11:13:06.719Z,23.70
2022-07-26T11:15:35.887Z,23.60
2022-07-26T11:18:08.379Z,23.60
2022-07-26T11:20:38.153Z,23.60
2022-07-26T11:23:20.074Z,23.60
2022-07-26T11:26:02.289Z,23.60
2022-07-26T11:28:30.917Z,23.50
2022-07-26T11:30:59.442Z,23.30
2022-07-26T11:33:37.808Z,23.10
2022-07-26T11:36:07.772Z,22.80
2022-07-26T11:38:49.400Z,22.60
2022-07-26T11:41:20.079Z,22.60
2022-07-26T11:44:03.982Z,22.70
2022-07-26T11:46:33.658Z,22.80
2022-07-26T11:49:02.578Z,22.80
2022-07-26T11:51:32.337Z,22.90
2022-07-26T11:54:04.150Z,22.80
2022-07-26T11:56:32.904Z,22.70
2022-07-26T11:59:01.283Z,22.70
2022-07-26T12:01:29.600Z,22.70
2022-07-26T12:03:58.962Z,22.60
2022-07-26T12:06:28.970Z,22.60
2022-07-26T12:08:59.808Z,22.40
2022-07-26T12:11:39.632Z,22.40
2022-07-26T12:14:08.330Z,22.40
2022-07-26T12:16:38.489Z,22.30
2022-07-26T12:19:07.561Z,22.30
2022-07-26T12:21:40.010Z,22.20
2022-07-26T12:24:10.741Z,22.10
2022-07-26T12:26:39.601Z,22.20
2022-07-26T12:29:26.822Z,22.40
2022-07-26T12:32:02.206Z,22.60
2022-07-26T12:34:30.996Z,22.70
2022-07-26T12:37:08.999Z,22.90
2022-07-26T12:39:39.230Z,23.00
2022-07-26T12:42:23.705Z,23.10
2022-07-26T12:45:02.297Z,23.30
2022-07-26T12:47:32.749Z,23.30
2022-07-26T12:50:01.419Z,23.30
2022-07-26T12:52:31.625Z,23.30
2022-07-26T12:55:02.058Z,23.40
2022-07-26T12:57:32.032Z,23.40
2022-07-26T13:00:00.895Z,23.50
2022-07-26T13:02:29.167Z,23.80
2022-07-26T13:05:00.405Z,23.80
2022-07-26T13:07:29.329Z,23.60
2022-07-26T13:10:22.602Z,23.60
2022-07-26T13:12:47.278Z,23.40
2022-07-26T13:15:15.557Z,23.40
2022-07-26T13:17:44.137Z,23.40
2022-07-26T13:20:12.290Z,23.20
2022-07-26T13:22:42.496Z,23.10
2022-07-26T13:25:10.873Z,23.20
2022-07-26T13:27:44.338Z,23.40
2022-07-26T13:30:15.205Z,23.50
2022-07-26T13:32:43.556Z,23.60
2022-07-26T13:35:11.897Z,23.70
2022-07-26T13:37:41.127Z,23.70
2022-07-26T13:40:09.921Z,23.60
2022-07-26T13:42:39.224Z,23.60
2022-07-26T13:45:09.153Z,23.60
2022-07-26T13:47:39.356Z,23.60
2022-07-26T13:50:09.566Z,23.50
2022-07-26T13:52:38.390Z,23.50
2022-07-26T13:55:07.590Z,23.40
2022-07-26T13:57:47.977Z,23.30
2022-07-26T14:00:25.011Z,23.10
2022-07-26T14:02:55.340Z,23.10
2022-07-26T14:05:24.247Z,23.20
2022-07-26T14:07:52.898Z,23.20
2022-07-26T14:10:22.649Z,23.20
2022-07-26T14:12:51.639Z,23.10
2022-07-26T14:15:23.113Z,23.10
2022-07-26T14:17:53.870Z,23.00
2022-07-26T14:20:23.328Z,23.10
2022-07-26T14:22:53.944Z,23.10
2022-07-26T14:25:23.013Z,23.00
2022-07-26T14:27:52.382Z,22.90
2022-07-26T14:30:21.935Z,22.90
2022-07-26T14:32:50.661Z,22.90
2022-07-26T14:35:20.997Z,23.00
2022-07-26T14:37:49.434Z,23.00
2022-07-26T14:40:18.650Z,23.10
2022-07-26T14:42:47.910Z,23.20
2022-07-26T14:45:17.106Z,23.30
2022-07-26T14:47:45.729Z,23.40
2022-07-26T14:50:15.270Z,23.60
2022-07-26T14:52:47.703Z,23.60
2022-07-26T14:55:21.708Z,23.60
2022-07-26T14:57:54.143Z,23.50
2022-07-26T15:00:22.741Z,23.40
2022-07-26T15:02:52.143Z,23.40
2022-07-26T15:05:20.674Z,23.40
2022-07-26T15:07:50.586Z,23.40
2022-07-26T15:10:29.125Z,23.40
2022-07-26T15:12:58.329Z,23.40
2022-07-26T15:15:27.254Z,23.40
2022-07-26T15:17:56.293Z,23.40
2022-07-26T15:20:25.598Z,23.40
2022-07-26T15:22:56.748Z,23.30
2022-07-26T15:25:26.005Z,23.10
2022-07-26T15:27:54.516Z,22.90
2022-07-26T15:30:23.964Z,22.80
2022-07-26T15:32:54.798Z,22.70
2022-07-26T15:35:23.470Z,22.80
2022-07-26T15:37:51.983Z,22.70
2022-07-26T15:40:21.889Z,22.80
2022-07-26T15:42:52.982Z,22.80
2022-07-26T15:45:22.647Z,23.00
2022-07-26T15:47:57.627Z,23.10
2022-07-26T15:50:30.080Z,23.20
2022-07-26T15:52:58.563Z,23.20
2022-07-26T15:55:28.468Z,23.20
2022-07-26T15:57:57.247Z,23.20
2022-07-26T16:00:25.820Z,23.20
2022-07-26T16:02:54.649Z,23.20
2022-07-26T16:05:23.079Z,23.20
2022-07-26T16:07:51.610Z,23.20
2022-07-26T16:10:20.043Z,23.20
2022-07-26T16:12:50.116Z,23.30
2022-07-26T16:15:19.121Z,23.40
2022-07-26T16:17:47.768Z,23.50
2022-07-26T16:20:19.353Z,23.50
2022-07-26T16:22:48.993Z,23.40
2022-07-26T16:25:17.651Z,23.50
2022-07-26T16:27:46.522Z,23.50
2022-07-26T16:30:17.248Z,23.60
2022-07-26T16:32:45.833Z,23.60
2022-07-26T16:35:14.739Z,23.60
2022-07-26T16:37:43.183Z,23.70
2022-07-26T16:40:12.882Z,23.60
2022-07-26T16:42:41.418Z,23.60
2022-07-26T16:45:10.376Z,23.50
2022-07-26T16:47:40.285Z,23.40
2022-07-26T16:50:10.366Z,23.40
2022-07-26T16:52:39.025Z,23.30
2022-07-26T16:55:11.069Z,23.30
2022-07-26T16:57:40.110Z,23.40
2022-07-26T17:00:11.304Z,23.40
2022-07-26T17:02:41.972Z,23.40
2022-07-26T17:05:10.887Z,23.40
2022-07-26T17:07:39.286Z,23.40
2022-07-26T17:10:10.365Z,23.40
2022-07-26T17:12:41.282Z,23.40
2022-07-26T17:15:10.972Z,23.30
2022-07-26T17:17:42.940Z,23.20
2022-07-26T17:20:14.833Z,23.20
2022-07-26T17:22:43.788Z,23.30
2022-07-26T17:25:12.188Z,23.30
2022-07-26T17:27:40.640Z,23.20
2022-07-26T17:30:10.389Z,23.10
2022-07-26T17:32:41.297Z,22.90
2022-07-26T17:35:10.460Z,22.90
2022-07-26T17:37:40.031Z,22.70
2022-07-26T17:40:10.297Z,22.80
2022-07-26T17:42:39.274Z,22.80
2022-07-26T17:45:13.159Z,22.70
2022-07-26T17:47:44.281Z,22.60
2022-07-26T17:50:35.347Z,22.60
2022-07-26T17:53:01.945Z,22.60
2022-07-26T17:55:30.632Z,22.60
2022-07-26T17:57:59.163Z,22.60
2022-07-26T18:00:29.343Z,22.60
2022-07-26T18:02:59.633Z,22.50
2022-07-26T18:05:34.888Z,22.50
2022-07-26T18:08:05.042Z,22.40
2022-07-26T18:10:33.789Z,22.40
2022-07-26T18:13:02.265Z,22.40
2022-07-26T18:15:31.254Z,22.40
2022-07-26T18:18:00.995Z,22.40
2022-07-26T18:20:29.531Z,22.40
2022-07-26T18:22:59.663Z,22.30
2022-07-26T18:25:28.127Z,22.30
2022-07-26T18:27:56.597Z,22.10
2022-07-26T18:30:25.297Z,22.10
2022-07-26T18:32:53.788Z,22.10
2022-07-26T18:35:24.506Z,22.00
2022-07-26T18:37:53.635Z,21.80
2022-07-26T18:40:23.342Z,21.80
2022-07-26T18:42:52.117Z,21.70
2022-07-26T18:45:21.316Z,21.70
2022-07-26T18:47:50.223Z,21.70
2022-07-26T18:50:19.562Z,21.70
2022-07-26T18:52:50.135Z,21.70
2022-07-26T18:55:19.114Z,21.60
2022-07-26T18:57:48.225Z,21.50
2022-07-26T19:00:18.929Z,21.50
2022-07-26T19:02:48.635Z,21.50
2022-07-26T19:05:17.396Z,21.50
2022-07-26T19:07:47.269Z,21.50
2022-07-26T19:10:17.394Z,21.50
2022-07-26T19:12:46.306Z,21.50
2022-07-26T19:15:17.772Z,21.50
2022-07-26T19:17:46.141Z,21.50
2022-07-26T19:20:15.438Z,21.60
2022-07-26T19:22:47.062Z,21.60
2022-07-26T19:25:17.081Z,21.60
2022-07-26T19:27:45.652Z,21.70
2022-07-26T19:30:14.649Z,21.90
2022-07-26T19:32:43.316Z,21.90
2022-07-26T19:35:11.729Z,22.00
2022-07-26T19:37:40.181Z,21.90
2022-07-26T19:40:09.522Z,21.80
2022-07-26T19:42:42.295Z,21.70
2022-07-26T19:45:11.674Z,21.60
2022-07-26T19:47:40.302Z,21.60
2022-07-26T19:50:10.796Z,21.70
2022-07-26T19:52:39.073Z,21.80
2022-07-26T19:55:08.695Z,21.80
2022-07-26T19:57:37.526Z,21.80
2022-07-26T20:00:10.241Z,21.90
2022-07-26T20:02:41.973Z,21.80
2022-07-26T20:05:11.759Z,21.70
2022-07-26T20:07:40.441Z,21.60
2022-07-26T20:10:10.114Z,21.50
2022-07-26T20:12:39.218Z,21.50
2022-07-26T20:15:10.013Z,21.40
2022-07-26T20:17:39.802Z,21.50
2022-07-26T20:20:10.398Z,21.60
2022-07-26T20:22:39.228Z,21.60
2022-07-26T20:25:08.753Z,21.70
2022-07-26T20:27:37.367Z,21.80
2022-07-26T20:30:09.876Z,21.90
2022-07-26T20:32:38.598Z,21.90
2022-07-26T20:35:07.862Z,22.10
2022-07-26T20:37:36.715Z,22.10
2022-07-26T20:40:07.788Z,22.10
2022-07-26T20:42:40.384Z,22.10
2022-07-26T20:45:13.085Z,22.10
2022-07-26T20:47:42.903Z,22.10
2022-07-26T20:50:12.501Z,22.10
2022-07-26T20:52:42.030Z,22.10
2022-07-26T20:55:11.172Z,22.20
2022-07-26T20:57:39.776Z,22.20
2022-07-26T21:00:11.849Z,22.20
2022-07-26T21:02:41.003Z,22.20
2022-07-26T21:05:10.309Z,22.20
2022-07-26T21:07:56.537Z,22.20
2022-07-26T21:10:29.072Z,22.30
2022-07-26T21:13:00.345Z,22.30
2022-07-26T21:15:31.347Z,22.20
2022-07-26T21:18:01.054Z,22.20
2022-07-26T21:20:29.869Z,22.00
2022-07-26T21:23:12.973Z,21.70
2022-07-26T21:25:45.396Z,21.10
2022-07-26T21:28:13.785Z,20.70
2022-07-26T21:30:43.928Z,20.70
2022-07-26T21:33:12.233Z,20.70
2022-07-26T21:35:41.935Z,20.80
2022-07-26T21:38:10.770Z,20.80
2022-07-26T21:40:39.536Z,20.90
2022-07-26T21:43:08.209Z,21.10
2022-07-26T21:45:36.701Z,21.10
2022-07-26T21:48:07.269Z,21.10
2022-07-26T21:50:35.962Z,21.10
2022-07-26T21:53:04.876Z,21.10
2022-07-26T21:55:33.774Z,21.10
2022-07-26T21:58:02.360Z,21.10
2022-07-26T22:00:31.047Z,21.00
2022-07-26T22:02:59.535Z,20.80
2022-07-26T22:05:42.704Z,20.60
2022-07-26T22:08:12.554Z,20.60
2022-07-26T22:10:44.654Z,20.60
2022-07-26T22:13:14.039Z,20.60
2022-07-26T22:15:42.799Z,20.50
2022-07-26T22:18:12.152Z,20.50
2022-07-26T22:20:42.386Z,20.40
2022-07-26T22:23:13.386Z,20.50
2022-07-26T22:25:42.127Z,20.50
2022-07-26T22:28:11.841Z,20.60
2022-07-26T22:30:41.110Z,20.70
2022-07-26T22:33:11.883Z,20.80
2022-07-26T22:35:41.727Z,20.90
2022-07-26T22:38:11.999Z,21.00
2022-07-26T22:40:42.104Z,21.00
2022-07-26T22:43:11.981Z,21.10
2022-07-26T22:45:41.780Z,21.10
2022-07-26T22:48:10.434Z,21.20
2022-07-26T22:50:39.123Z,21.20
2022-07-26T22:53:09.005Z,21.20
2022-07-26T22:55:37.432Z,21.20
2022-07-26T22:58:05.865Z,21.20
2022-07-26T23:00:34.529Z,21.20
2022-07-26T23:03:03.054Z,21.20
2022-07-26T23:05:46.036Z,21.20
2022-07-26T23:08:45.923Z,21.20
2022-07-26T23:11:07.138Z,21.20
2022-07-26T23:13:35.907Z,21.20
2022-07-26T23:16:04.536Z,21.20
2022-07-26T23:18:34.611Z,21.10
2022-07-26T23:21:03.887Z,21.00
2022-07-26T23:23:34.226Z,21.00
2022-07-26T23:26:02.757Z,21.00
2022-07-26T23:28:37.548Z,21.10
2022-07-26T23:31:08.902Z,21.00
2022-07-26T23:33:52.330Z,21.00
2022-07-26T23:36:27.972Z,21.00
2022-07-26T23:38:59.674Z,21.00
2022-07-26T23:41:28.649Z,21.00
2022-07-26T23:43:57.560Z,21.00
2022-07-26T23:46:27.142Z,21.10
2022-07-26T23:48:58.448Z,21.20
2022-07-26T23:51:27.208Z,21.20
2022-07-26T23:53:57.089Z,21.30
2022-07-26T23:56:26.443Z,21.30
2022-07-26T23:58:54.792Z,21.30
